SHMÚ vydal meteorologické výstrahy na RainStorm Display warnings

SHMÚ vydal hydrologické výstrahy na   Prívalová povodeň Povodeň z trvalého dažďa Display warnings

TAF

Aerodrome Forecast TAF

TAF description (Slovak)

19.08.2017 - 17:00 UTC

TAF AMD LZSL 191827Z 1918/2003 24005KT 9999 -RA BKN040
    TEMPO 1918/1920 36012KT 4000 TSRA SCT020CB BKN025
    TEMPO 1920/2003 6000 RA SCT010 BKN020=

19.08.2017 - 17:00 UTC

TAF AMD LZTT 191825Z 1918/2018 06007KT 9999 SCT015 BKN035
    TEMPO 1918/1922 4000 TSRA SCT010 SCT020CB BKN025
    TEMPO 1922/2016 4000 RA BKN010 OVC030=

19.08.2017 - 17:00 UTC

TAF LZIB 191700Z 1918/2018 33008KT 9999 SCT040 BKN100
    TEMPO 1918/2006 -RA SCT025 BKN040
    TEMPO 1921/2004 5000 RA SCT012 BKN030
    BECMG 2010/2012 9999 FEW040=
TAF LZKZ 191700Z 1918/2018 01008KT 9999 FEW040 SCT080
    BECMG 2000/2002 -RA SCT040 BKN080
    TEMPO 2003/2016 7000 RA SCT025 BKN040=
TAF LZTT 191700Z 1918/2018 06007KT 9999 SCT045 BKN090
    TEMPO 1918/1920 -SHRA BKN045
    BECMG 1919/1921 -RA FEW012 BKN035
    TEMPO 1920/2016 4000 RA BKN010 OVC030=

19.08.2017 - 17:00 UTC

TAF LZSL 191700Z 1918/2003 24005KT 9999 SCT040 BKN090
    BECMG 1918/1920 34006KT -RA SCT025 BKN040
    TEMPO 1921/2003 6000 RA SCT010 BKN035=
TAF LZPP 191700Z 1918/2003 35010KT 9999 SCT040 BKN080
    TEMPO 1918/2003 -RA BKN040
    TEMPO 1918/2003 6000 RA SCT010 BKN035=
TAF LZZI 191700Z 1918/2003 34004KT 9999 SCT040 OVC080
    TEMPO 1918/2003 -RA BKN040
    TEMPO 1918/2003 6000 RA SCT010 OVC035=

19.08.2017 - 14:00 UTC

TAF LZSL 191400Z 1915/2000 24005KT 9999 SCT040 BKN090
    TEMPO 1915/1918 -SHRA BKN040
    BECMG 1917/1919 34006KT -RA SCT025 BKN040
    TEMPO 1921/2000 6000 RA SCT010 BKN025=
TAF LZPP 191400Z 1915/2000 35010KT 9999 SCT040 BKN080
    TEMPO 1915/1918 32018G28KT -SHRA BKN040
    BECMG 1916/1918 -RA BKN040
    TEMPO 1919/2000 6000 RA SCT010 BKN035=
TAF LZZI 191400Z 1915/2000 31008KT 9999 BKN040
    TEMPO 1915/1918 02005KT -RA OVC040
    BECMG 1916/1918 -RA
    TEMPO 1918/2000 6000 RA SCT010 OVC035=

19.08.2017 - 11:00 UTC

TAF LZIB 191100Z 1912/2012 30014KT 9999 -RA SCT015 BKN050
    TEMPO 1912/1920 33018G28KT NSW SCT020 BKN070
    PROB40 TEMPO 1912/1915 7000 SHRA SCT010 SCT040CB BKN045
    TEMPO 1921/2004 5000 RA BKN012 BKN025=
TAF LZKZ 191100Z 1912/2012 19008KT 9999 FEW040 SCT080
    PROB30 TEMPO 1914/1920 -TSRA SCT040CB BKN050
    BECMG 1916/1918 01012KT
    BECMG 2002/2004 -RA SCT040 BKN080
    TEMPO 2003/2012 7000 RA SCT025 BKN040=
TAF LZTT 191100Z 1912/2012 27005KT 9999 SCT055
    TEMPO 1912/1920 -SHRA BKN045
    PROB30 TEMPO 1912/1918 25015G25KT 5000 TSRA SCT035CB BKN040
    BECMG 1920/1922 06005KT -RA BKN035
    TEMPO 1922/2012 4000 RA SCT012 BKN020=

19.08.2017 - 11:00 UTC

TAF LZSL 191100Z 1912/1921 24005KT 9999 SCT040 BKN090
    TEMPO 1912/1918 -SHRA BKN040
    BECMG 1917/1919 34006KT -RA SCT025 BKN040=
TAF LZPP 191100Z 1912/1921 29012KT 9999 SCT040 BKN090
    TEMPO 1912/1920 33018G28KT -SHRA BKN040
    BECMG 1916/1918 -RA
    TEMPO 1919/1921 6000 RA SCT020 BKN040=
TAF LZZI 191100Z 1912/1921 31008KT 9999 BKN045
    TEMPO 1912/1918 02005KT SHRA BKN040
    BECMG 1916/1918 -RA
    TEMPO 1918/1921 6000 RA SCT020 BKN035=

19.08.2017 - 08:00 UTC

TAF LZSL 190800Z 1909/1918 VRB02KT CAVOK
    BECMG 1909/1911 24004KT 9999 SCT040 BKN090
    TEMPO 1911/1918 -SHRA BKN040=
TAF LZPP 190800Z 1909/1918 31012KT CAVOK
    BECMG 1909/1911 9999 SCT040 BKN090
    TEMPO 1909/1918 33018G28KT -SHRA BKN040
    PROB30 TEMPO 1909/1913 TSRA SCT035CB BKN040=
TAF LZZI 190800Z 1909/1918 24008KT 9999 BKN045
    BECMG 1909/1911 31012KT
    TEMPO 1909/1918 -SHRA BKN040
    PROB30 TEMPO 1909/1913 TSRA SCT035CB BKN040=

19.08.2017 - 05:00 UTC

TAF LZSL 190500Z 1906/1915 VRB02KT CAVOK
    BECMG 1908/1910 24004KT 9999 SCT040 BKN090
    TEMPO 1911/1915 -SHRA BKN040=
TAF LZPP 190500Z 1906/1915 31012KT CAVOK
    BECMG 1908/1910 9999 SCT040 BKN090
    TEMPO 1909/1915 33018G28KT -SHRA BKN040
    PROB30 TEMPO 1909/1913 TSRA SCT035CB BKN040=
TAF LZZI 190500Z 1906/1915 24005KT CAVOK
    BECMG 1907/1909 34008KT 9999 SCT045 BKN080
    TEMPO 1909/1915 -SHRA BKN045
    PROB30 TEMPO 1909/1913 TSRA SCT035CB BKN040=

19.08.2017 - 02:00 UTC

TAF LZSL 190200Z 1903/1912 VRB02KT CAVOK
    BECMG 1908/1910 21005KT 9999 SCT040 BKN090=
TAF LZZI 190200Z 1903/1912 VRB02KT CAVOK
    BECMG 1906/1908 24005KT 9999 SCT040 BKN080
    TEMPO 1908/1912 SHRA FEW040CB BKN045=

skok na menu ↑


skok na začiatok stránky ↑